Time;durP1;ratioP1;P1;durP2;ratioP2;P2;SDS_P1;SDS_P2;PMS_P1;PMS_P2;Temp;Humidity;BMP_temperature;BMP_pressure;BME280_temperature;BME280_humidity;BME280_pressure;Samples;Min_cycle;Max_cycle;Signal;HPM_P1;HPM_P2
2021/12/25 00:02:07;;;;;;;44.55;32.65;;;;;;;;;;5049058;28;20543;-59
2021/12/25 00:04:33;;;;;;;48.45;34.10;;;;;;;;;;5050907;28;20047;-59
2021/12/25 00:06:58;;;;;;;49.90;34.13;;;;;;;;;;5049154;28;20033;-59
2021/12/25 00:09:23;;;;;;;45.28;32.20;;;;;;;;;;5048853;28;20036;-59
2021/12/25 00:11:48;;;;;;;43.97;34.83;;;;;;;;;;5031377;28;20041;-59
2021/12/25 00:14:14;;;;;;;54.00;36.73;;;;;;;;;;5040056;28;20440;-59
2021/12/25 00:16:39;;;;;;;46.28;33.70;;;;;;;;;;5048825;28;20469;-59
2021/12/25 00:19:04;;;;;;;40.53;31.88;;;;;;;;;;5055070;28;20047;-59
2021/12/25 00:21:29;;;;;;;45.97;33.92;;;;;;;;;;5037672;28;20092;-59
2021/12/25 00:23:54;;;;;;;44.88;32.70;;;;;;;;;;5034967;28;20129;-59
2021/12/25 00:26:42;;;;;;;48.90;35.97;;;;;;;;;;5033480;28;20040;-59
2021/12/25 00:29:33;;;;;;;40.42;30.52;;;;;;;;;;5033038;28;20461;-59
2021/12/25 00:33:04;;;;;;;42.15;30.80;;;;;;;;;;5036044;28;20112;-59
2021/12/25 00:34:52;;;;;;;52.05;33.83;;;;;;;;;;5023752;28;20087;-59
2021/12/25 00:37:17;;;;;;;41.80;32.38;;;;;;;;;;5034272;28;20460;-59
2021/12/25 00:39:43;;;;;;;49.90;36.38;;;;;;;;;;5032946;28;20116;-59
2021/12/25 00:42:09;;;;;;;56.60;35.97;;;;;;;;;;5053626;28;20047;-59
2021/12/25 00:44:34;;;;;;;45.60;34.28;;;;;;;;;;5052569;28;20067;-59
2021/12/25 00:47:00;;;;;;;52.45;36.38;;;;;;;;;;5052249;28;20514;-58
2021/12/25 00:49:26;;;;;;;53.67;40.95;;;;;;;;;;5052771;28;20404;-58
2021/12/25 00:51:51;;;;;;;58.33;42.00;;;;;;;;;;5036455;28;20125;-59
2021/12/25 00:54:16;;;;;;;51.25;39.28;;;;;;;;;;5032927;28;20030;-59
2021/12/25 00:56:41;;;;;;;46.50;35.63;;;;;;;;;;5033825;28;20038;-59
2021/12/25 00:59:06;;;;;;;48.25;33.22;;;;;;;;;;5038000;28;20028;-59
2021/12/25 01:01:32;;;;;;;46.05;32.35;;;;;;;;;;5038394;28;20034;-59
2021/12/25 01:03:57;;;;;;;49.97;35.00;;;;;;;;;;5032633;28;20037;-59
2021/12/25 01:06:22;;;;;;;48.40;33.23;;;;;;;;;;5044663;28;20111;-59
2021/12/25 01:08:47;;;;;;;51.03;34.55;;;;;;;;;;5045293;28;20466;-59
2021/12/25 01:11:13;;;;;;;50.05;34.60;;;;;;;;;;5044322;28;20037;-59
2021/12/25 01:13:45;;;;;;;51.33;33.67;;;;;;;;;;5038979;28;20388;-59
2021/12/25 01:16:29;;;;;;;50.97;34.25;;;;;;;;;;5032338;28;20192;-59
2021/12/25 01:19:27;;;;;;;43.97;31.50;;;;;;;;;;5032391;28;20535;-60
2021/12/25 01:24:41;;;;;;;43.50;30.50;;;;;;;;;;5052496;28;20033;-59
2021/12/25 01:32:42;;;;;;;47.80;30.90;;;;;;;;;;5051983;28;20104;-58
2021/12/25 01:35:25;;;;;;;44.97;27.88;;;;;;;;;;5036688;28;20496;-59
2021/12/25 01:48:34;;;;;;;40.70;23.15;;;;;;;;;;5047757;28;20051;-58
2021/12/25 01:50:59;;;;;;;39.92;21.95;;;;;;;;;;5041276;28;20095;-58
2021/12/25 01:53:24;;;;;;;29.05;21.25;;;;;;;;;;5033221;28;20392;-59
2021/12/25 01:55:49;;;;;;;29.80;19.85;;;;;;;;;;5031762;28;20091;-59
2021/12/25 01:58:15;;;;;;;33.78;20.10;;;;;;;;;;5032993;28;20486;-59
2021/12/25 02:00:45;;;;;;;30.00;21.48;;;;;;;;;;5031916;28;20140;-59
2021/12/25 02:03:12;;;;;;;28.83;21.65;;;;;;;;;;5032992;28;20044;-59
2021/12/25 02:05:38;;;;;;;33.75;20.77;;;;;;;;;;5031632;28;20692;-59
2021/12/25 02:08:03;;;;;;;29.13;20.33;;;;;;;;;;5042725;28;20025;-59
2021/12/25 02:10:28;;;;;;;30.40;19.27;;;;;;;;;;5040744;28;20030;-59
2021/12/25 02:12:54;;;;;;;25.00;19.27;;;;;;;;;;5040377;28;20052;-58
2021/12/25 02:15:21;;;;;;;24.90;18.48;;;;;;;;;;5040707;28;20459;-59
2021/12/25 02:20:14;;;;;;;25.58;17.58;;;;;;;;;;5038531;28;20056;-58
2021/12/25 02:22:40;;;;;;;26.50;16.83;;;;;;;;;;5042716;28;20017;-60
2021/12/25 02:25:05;;;;;;;26.55;16.02;;;;;;;;;;5042098;28;20060;-58
2021/12/25 02:27:31;;;;;;;19.08;13.95;;;;;;;;;;5034520;28;20057;-59
2021/12/25 02:29:56;;;;;;;20.80;15.20;;;;;;;;;;5033012;28;20025;-58
2021/12/25 02:32:21;;;;;;;21.35;14.77;;;;;;;;;;5052262;28;20472;-58
2021/12/25 02:34:46;;;;;;;15.83;14.17;;;;;;;;;;5050173;28;20534;-58
2021/12/25 02:37:11;;;;;;;18.38;14.52;;;;;;;;;;5051337;28;20543;-59
2021/12/25 02:39:36;;;;;;;19.10;14.17;;;;;;;;;;5030243;28;20041;-58
2021/12/25 02:42:02;;;;;;;18.08;11.88;;;;;;;;;;5050800;28;20530;-58
2021/12/25 02:44:27;;;;;;;19.75;14.43;;;;;;;;;;5049063;28;20056;-58
2021/12/25 02:46:55;;;;;;;20.10;13.17;;;;;;;;;;5044205;28;20028;-58
2021/12/25 02:49:20;;;;;;;19.08;15.38;;;;;;;;;;5050433;28;21013;-58
2021/12/25 02:51:45;;;;;;;18.75;12.85;;;;;;;;;;5041255;28;20009;-58
2021/12/25 02:54:11;;;;;;;24.33;13.53;;;;;;;;;;5050243;28;20033;-58
2021/12/25 02:56:37;;;;;;;18.70;13.70;;;;;;;;;;5051515;28;20478;-58
2021/12/25 02:59:02;;;;;;;14.45;12.98;;;;;;;;;;5045424;28;20087;-58
2021/12/25 03:01:27;;;;;;;17.70;14.40;;;;;;;;;;5044899;28;20120;-58
2021/12/25 03:03:52;;;;;;;15.48;12.95;;;;;;;;;;5050212;28;20454;-57
2021/12/25 03:06:17;;;;;;;20.33;12.93;;;;;;;;;;5051640;28;20372;-58
2021/12/25 03:08:43;;;;;;;9.95;9.05;;;;;;;;;;5047513;28;20452;-58
2021/12/25 03:11:09;;;;;;;20.75;11.25;;;;;;;;;;5048187;28;20067;-58
2021/12/25 03:13:42;;;;;;;13.02;9.75;;;;;;;;;;5051714;28;20017;-58
2021/12/25 03:16:08;;;;;;;12.35;8.15;;;;;;;;;;5049514;28;20179;-59
2021/12/25 03:18:37;;;;;;;7.00;6.35;;;;;;;;;;5051238;28;20528;-58
2021/12/25 03:21:04;;;;;;;10.10;7.03;;;;;;;;;;5036736;28;20473;-58
2021/12/25 03:23:30;;;;;;;9.57;6.53;;;;;;;;;;5031485;28;20024;-58
2021/12/25 03:25:56;;;;;;;7.85;5.32;;;;;;;;;;5029912;28;20066;-58
2021/12/25 03:28:23;;;;;;;7.05;5.35;;;;;;;;;;5032453;28;20028;-58
2021/12/25 03:30:49;;;;;;;5.82;5.18;;;;;;;;;;5031418;28;20527;-57
2021/12/25 03:33:15;;;;;;;6.80;4.68;;;;;;;;;;5035871;28;20381;-58
2021/12/25 03:35:40;;;;;;;7.20;4.53;;;;;;;;;;5049246;28;20033;-57
2021/12/25 03:38:07;;;;;;;12.20;5.82;;;;;;;;;;5051227;28;20387;-57
2021/12/25 03:40:32;;;;;;;7.65;4.63;;;;;;;;;;5039645;28;20120;-58
2021/12/25 03:42:58;;;;;;;4.30;4.00;;;;;;;;;;5031118;28;20096;-57
2021/12/25 03:45:23;;;;;;;5.10;3.80;;;;;;;;;;5041905;28;20041;-58
2021/12/25 03:47:51;;;;;;;4.82;3.72;;;;;;;;;;5051081;28;20016;-57
2021/12/25 03:58:31;;;;;;;3.92;3.63;;;;;;;;;;5050729;28;20032;-58
2021/12/25 04:01:01;;;;;;;4.28;3.80;;;;;;;;;;5032120;28;20077;-58
2021/12/25 04:03:42;;;;;;;6.57;4.45;;;;;;;;;;5030549;28;20017;-59
2021/12/25 04:06:09;;;;;;;5.28;3.97;;;;;;;;;;5029552;28;20033;-59
2021/12/25 04:08:41;;;;;;;4.70;4.30;;;;;;;;;;5031091;28;20438;-59
2021/12/25 04:11:12;;;;;;;7.68;4.90;;;;;;;;;;5042748;28;20045;-58
2021/12/25 04:13:37;;;;;;;5.45;5.03;;;;;;;;;;5050873;28;20071;-58
2021/12/25 04:16:03;;;;;;;6.28;5.05;;;;;;;;;;5031395;28;20037;-58
2021/12/25 04:18:28;;;;;;;6.65;5.90;;;;;;;;;;5046722;28;20054;-58
2021/12/25 04:20:53;;;;;;;4.82;4.43;;;;;;;;;;5037108;28;20041;-58
2021/12/25 04:23:24;;;;;;;8.95;6.53;;;;;;;;;;5031048;28;20017;-57
2021/12/25 04:25:49;;;;;;;8.02;5.90;;;;;;;;;;5029155;28;20622;-58
2021/12/25 04:28:31;;;;;;;6.15;5.63;;;;;;;;;;5043866;28;20135;-58
2021/12/25 04:31:10;;;;;;;6.63;5.97;;;;;;;;;;5042344;28;20045;-57
2021/12/25 05:03:38;;;;;;;6.75;6.32;;;;;;;;;;5046816;28;20469;-57
2021/12/25 05:06:04;;;;;;;8.25;6.93;;;;;;;;;;5052566;28;20025;-58
2021/12/25 05:08:29;;;;;;;8.50;7.10;;;;;;;;;;5053747;28;20024;-58
2021/12/25 05:10:54;;;;;;;8.48;7.57;;;;;;;;;;5043855;28;20037;-59
2021/12/25 05:13:20;;;;;;;7.38;6.68;;;;;;;;;;5042660;28;20021;-59
2021/12/25 05:15:46;;;;;;;7.25;6.55;;;;;;;;;;5042047;28;20037;-59
2021/12/25 05:18:12;;;;;;;6.95;6.35;;;;;;;;;;5042564;28;20033;-60
2021/12/25 05:20:37;;;;;;;8.23;6.67;;;;;;;;;;5040290;28;20032;-59
2021/12/25 05:23:02;;;;;;;7.00;5.47;;;;;;;;;;5042829;28;20029;-59
2021/12/25 05:25:27;;;;;;;8.10;6.13;;;;;;;;;;5043135;28;20511;-59
2021/12/25 05:27:52;;;;;;;9.38;6.05;;;;;;;;;;5042645;28;20471;-59
2021/12/25 05:30:18;;;;;;;9.35;6.32;;;;;;;;;;5038619;28;20037;-59
2021/12/25 05:32:44;;;;;;;8.15;6.80;;;;;;;;;;5038768;28;20017;-59
2021/12/25 05:35:09;;;;;;;8.13;7.32;;;;;;;;;;5038372;28;20029;-59
2021/12/25 05:37:34;;;;;;;7.47;6.73;;;;;;;;;;5041925;28;20029;-60
2021/12/25 05:40:01;;;;;;;8.07;7.03;;;;;;;;;;5039583;28;21076;-60
2021/12/25 05:42:26;;;;;;;6.70;5.47;;;;;;;;;;5041840;28;20432;-57
2021/12/25 05:44:51;;;;;;;6.95;6.38;;;;;;;;;;5041820;28;20128;-57
2021/12/25 05:47:16;;;;;;;6.82;6.35;;;;;;;;;;5045150;28;20036;-57
2021/12/25 05:49:42;;;;;;;6.30;5.90;;;;;;;;;;5036168;28;20071;-57
2021/12/25 05:52:07;;;;;;;6.47;5.57;;;;;;;;;;5036256;28;20465;-56
2021/12/25 05:54:33;;;;;;;6.05;5.57;;;;;;;;;;5033173;28;20074;-57
2021/12/25 05:56:58;;;;;;;6.82;6.15;;;;;;;;;;5013117;28;20083;-57
2021/12/25 05:59:23;;;;;;;5.80;5.40;;;;;;;;;;5016946;28;20080;-58
2021/12/25 06:01:48;;;;;;;6.63;6.23;;;;;;;;;;5033653;28;20049;-56
2021/12/25 06:04:13;;;;;;;10.10;7.67;;;;;;;;;;5036195;28;20408;-57
2021/12/25 06:06:38;;;;;;;8.63;7.07;;;;;;;;;;5032969;28;20021;-57
2021/12/25 06:09:07;;;;;;;7.10;6.57;;;;;;;;;;5030463;28;20462;-57
2021/12/25 06:11:32;;;;;;;7.40;6.25;;;;;;;;;;5042354;28;20139;-57
2021/12/25 06:14:08;;;;;;;6.60;6.00;;;;;;;;;;5040577;28;20093;-56
2021/12/25 06:16:34;;;;;;;5.97;5.57;;;;;;;;;;5020458;28;20096;-57
2021/12/25 06:18:59;;;;;;;9.13;6.60;;;;;;;;;;5018750;28;20105;-56
2021/12/25 06:21:24;;;;;;;8.35;6.60;;;;;;;;;;5020271;28;20441;-57
2021/12/25 06:23:49;;;;;;;8.60;7.78;;;;;;;;;;5020078;28;20096;-57
2021/12/25 06:26:14;;;;;;;8.70;7.80;;;;;;;;;;5022220;28;20038;-57
2021/12/25 06:28:39;;;;;;;11.90;7.28;;;;;;;;;;5023670;28;20480;-57
2021/12/25 06:31:04;;;;;;;7.88;7.28;;;;;;;;;;5023301;28;20123;-57
2021/12/25 06:33:29;;;;;;;6.00;5.50;;;;;;;;;;5019562;28;20026;-57
2021/12/25 06:35:55;;;;;;;8.23;7.47;;;;;;;;;;5018775;28;20120;-57
2021/12/25 06:38:20;;;;;;;8.27;7.47;;;;;;;;;;5028773;28;20071;-58
2021/12/25 06:40:45;;;;;;;9.50;8.53;;;;;;;;;;5029312;28;20026;-57
2021/12/25 06:43:10;;;;;;;8.63;7.83;;;;;;;;;;5031858;28;20416;-57
2021/12/25 06:45:35;;;;;;;8.00;7.17;;;;;;;;;;5014519;28;20519;-56
2021/12/25 06:48:00;;;;;;;7.80;7.05;;;;;;;;;;5017599;28;20986;-57
2021/12/25 06:50:26;;;;;;;7.88;6.50;;;;;;;;;;5029660;28;20044;-57
2021/12/25 06:52:51;;;;;;;7.53;5.57;;;;;;;;;;5017894;28;20054;-57
2021/12/25 06:55:16;;;;;;;10.33;6.20;;;;;;;;;;5011821;28;20464;-57
2021/12/25 06:57:55;;;;;;;6.17;5.57;;;;;;;;;;5020229;28;20460;-57
2021/12/25 07:00:21;;;;;;;5.72;5.28;;;;;;;;;;5010271;28;20465;-57
2021/12/25 07:02:46;;;;;;;5.57;5.03;;;;;;;;;;5010603;28;20017;-57
2021/12/25 07:05:12;;;;;;;6.35;4.90;;;;;;;;;;5015820;28;20037;-57
2021/12/25 07:07:37;;;;;;;5.88;5.38;;;;;;;;;;5028319;28;20030;-57
2021/12/25 07:10:02;;;;;;;6.13;4.50;;;;;;;;;;5028900;28;20123;-57
2021/12/25 07:12:31;;;;;;;8.55;4.07;;;;;;;;;;5050862;28;20024;-57
2021/12/25 07:14:56;;;;;;;5.85;5.45;;;;;;;;;;5049136;28;20029;-57
2021/12/25 07:17:21;;;;;;;5.78;5.07;;;;;;;;;;5040775;28;20036;-57
2021/12/25 07:19:46;;;;;;;5.28;4.32;;;;;;;;;;5041852;28;20026;-57
2021/12/25 07:22:13;;;;;;;4.77;4.33;;;;;;;;;;5029167;28;20437;-57
2021/12/25 07:24:38;;;;;;;4.93;4.47;;;;;;;;;;5024650;28;20547;-56
2021/12/25 07:27:05;;;;;;;5.05;4.65;;;;;;;;;;5030956;28;20177;-57
2021/12/25 07:29:30;;;;;;;4.95;3.63;;;;;;;;;;5040588;28;20048;-57
2021/12/25 07:31:55;;;;;;;6.80;4.47;;;;;;;;;;5033879;28;20033;-57
2021/12/25 07:34:21;;;;;;;5.90;4.13;;;;;;;;;;5029350;28;20037;-56
2021/12/25 07:36:46;;;;;;;4.30;4.00;;;;;;;;;;5040965;28;20051;-57
2021/12/25 07:39:11;;;;;;;5.05;4.65;;;;;;;;;;5036103;28;20049;-56
2021/12/25 07:41:36;;;;;;;4.82;4.32;;;;;;;;;;5039005;28;20083;-57
2021/12/25 07:44:01;;;;;;;4.27;3.83;;;;;;;;;;5038866;28;20100;-57
2021/12/25 07:46:27;;;;;;;8.18;4.85;;;;;;;;;;5037434;28;20786;-56
2021/12/25 07:48:52;;;;;;;4.25;3.92;;;;;;;;;;5034359;28;20013;-55
2021/12/25 07:51:17;;;;;;;5.18;4.55;;;;;;;;;;5039710;28;20010;-56
2021/12/25 07:53:44;;;;;;;7.28;4.22;;;;;;;;;;5040002;28;20599;-56
2021/12/25 07:56:10;;;;;;;4.38;3.75;;;;;;;;;;5037457;28;20029;-57
2021/12/25 07:58:35;;;;;;;4.90;4.60;;;;;;;;;;5040189;28;20031;-56
2021/12/25 08:01:00;;;;;;;3.97;3.67;;;;;;;;;;5036800;28;20057;-56
2021/12/25 08:03:25;;;;;;;5.65;3.65;;;;;;;;;;5040002;28;20470;-57
2021/12/25 08:05:50;;;;;;;4.33;3.93;;;;;;;;;;5037669;28;20515;-56
2021/12/25 08:08:15;;;;;;;4.03;3.72;;;;;;;;;;5037826;28;20547;-57
2021/12/25 08:10:42;;;;;;;8.50;4.00;;;;;;;;;;5047288;28;20033;-56
2021/12/25 08:13:08;;;;;;;3.30;3.10;;;;;;;;;;5049783;28;20091;-56
2021/12/25 08:15:33;;;;;;;3.60;3.40;;;;;;;;;;5043441;28;20503;-56
2021/12/25 08:18:00;;;;;;;3.30;3.10;;;;;;;;;;5046418;28;20120;-56
2021/12/25 08:20:25;;;;;;;4.80;3.15;;;;;;;;;;5048187;28;20048;-56
2021/12/25 08:22:51;;;;;;;4.00;3.25;;;;;;;;;;5049310;28;20021;-57
2021/12/25 08:25:16;;;;;;;3.77;3.43;;;;;;;;;;5047643;28;20508;-56
2021/12/25 08:27:42;;;;;;;3.55;3.35;;;;;;;;;;5033855;28;20444;-56
2021/12/25 08:30:10;;;;;;;9.13;3.15;;;;;;;;;;5032368;28;20036;-56
2021/12/25 08:32:35;;;;;;;4.15;3.83;;;;;;;;;;5048155;28;20043;-56
2021/12/25 08:35:00;;;;;;;3.50;3.23;;;;;;;;;;5034621;28;20033;-57
2021/12/25 08:37:26;;;;;;;3.78;3.58;;;;;;;;;;5039079;28;20885;-57
2021/12/25 08:39:52;;;;;;;4.18;3.78;;;;;;;;;;5047706;28;20033;-56
2021/12/25 08:42:17;;;;;;;4.68;3.00;;;;;;;;;;5033455;28;20094;-56
2021/12/25 08:45:04;;;;;;;4.47;4.18;;;;;;;;;;5037440;28;20135;-56
2021/12/25 08:47:29;;;;;;;3.47;3.20;;;;;;;;;;5041002;28;20033;-56
2021/12/25 08:49:54;;;;;;;3.97;3.58;;;;;;;;;;5033590;28;20033;-57
2021/12/25 08:52:21;;;;;;;4.10;3.47;;;;;;;;;;5033900;28;20535;-56
2021/12/25 08:54:48;;;;;;;3.83;3.35;;;;;;;;;;5044906;28;20183;-57
2021/12/25 08:57:14;;;;;;;3.40;3.10;;;;;;;;;;5034028;28;20021;-56
2021/12/25 08:59:39;;;;;;;3.75;3.45;;;;;;;;;;5034285;28;20492;-57
2021/12/25 09:02:08;;;;;;;3.40;3.20;;;;;;;;;;5040103;28;20056;-56
2021/12/25 09:04:33;;;;;;;;;;;;;;;;;;5036629;28;20029;-56
2021/12/25 09:06:59;;;;;;;6.60;3.00;;;;;;;;;;5044606;28;19916;-56
2021/12/25 09:09:24;;;;;;;4.80;3.30;;;;;;;;;;5036459;28;20033;-56
2021/12/25 09:11:49;;;;;;;4.03;3.65;;;;;;;;;;5044367;28;20016;-55
2021/12/25 09:14:15;;;;;;;3.25;2.97;;;;;;;;;;5034229;28;20108;-55
2021/12/25 09:16:40;;;;;;;3.43;3.13;;;;;;;;;;5048787;28;20468;-56
2021/12/25 09:19:05;;;;;;;5.47;4.97;;;;;;;;;;5042607;28;20504;-55
2021/12/25 09:21:31;;;;;;;3.72;3.40;;;;;;;;;;5041300;28;20016;-56
2021/12/25 09:23:56;;;;;;;2.88;2.70;;;;;;;;;;5041584;28;20013;-56
2021/12/25 09:26:22;;;;;;;10.07;3.67;;;;;;;;;;5041819;28;20017;-56
2021/12/25 09:28:47;;;;;;;12.82;4.72;;;;;;;;;;5048711;28;20512;-55
2021/12/25 09:31:13;;;;;;;3.03;2.75;;;;;;;;;;5046467;28;20518;-55
2021/12/25 09:33:38;;;;;;;4.10;3.78;;;;;;;;;;5038303;28;20024;-56
2021/12/25 09:36:04;;;;;;;4.63;3.00;;;;;;;;;;5013272;28;20412;-56
2021/12/25 09:38:29;;;;;;;3.85;3.47;;;;;;;;;;5013847;28;20034;-56
2021/12/25 09:40:55;;;;;;;7.68;4.57;;;;;;;;;;5030442;28;20034;-55
2021/12/25 09:43:20;;;;;;;3.83;3.25;;;;;;;;;;5046236;28;20079;-56
2021/12/25 09:45:46;;;;;;;4.07;3.22;;;;;;;;;;5030217;28;20029;-56
2021/12/25 09:48:11;;;;;;;8.13;4.50;;;;;;;;;;5028738;28;20424;-55
2021/12/25 09:50:36;;;;;;;3.70;3.40;;;;;;;;;;5032180;28;20116;-56
2021/12/25 09:53:05;;;;;;;4.93;3.35;;;;;;;;;;5033289;28;20515;-56
2021/12/25 09:55:30;;;;;;;3.67;3.38;;;;;;;;;;5029903;28;20660;-56
2021/12/25 09:57:56;;;;;;;2.30;2.08;;;;;;;;;;5030899;28;20028;-56
2021/12/25 10:00:22;;;;;;;2.80;2.60;;;;;;;;;;5016056;28;20050;-56
2021/12/25 10:02:49;;;;;;;3.33;2.90;;;;;;;;;;5019278;28;20445;-56
2021/12/25 10:05:23;;;;;;;3.15;2.90;;;;;;;;;;5019044;28;20500;-56
2021/12/25 10:07:59;;;;;;;4.35;4.00;;;;;;;;;;5020232;28;20068;-56
2021/12/25 10:10:24;;;;;;;2.92;2.80;;;;;;;;;;5018005;28;20037;-56
2021/12/25 10:12:50;;;;;;;5.25;3.58;;;;;;;;;;5022817;28;20035;-55
2021/12/25 10:15:19;;;;;;;6.47;2.70;;;;;;;;;;5018626;28;20041;-56
2021/12/25 10:17:46;;;;;;;3.30;3.00;;;;;;;;;;5020315;28;20018;-56
2021/12/25 10:20:16;;;;;;;6.70;2.72;;;;;;;;;;5018689;28;20408;-56
2021/12/25 10:23:01;;;;;;;2.72;2.53;;;;;;;;;;5019649;28;20534;-56
2021/12/25 10:25:32;;;;;;;3.03;2.83;;;;;;;;;;5015620;28;20030;-56
2021/12/25 10:27:58;;;;;;;3.22;2.72;;;;;;;;;;5013259;28;20044;-56
2021/12/25 10:30:23;;;;;;;7.18;2.80;;;;;;;;;;5015332;28;20346;-56
2021/12/25 10:32:49;;;;;;;4.97;2.80;;;;;;;;;;5021032;28;20078;-56
2021/12/25 10:35:17;;;;;;;2.53;2.42;;;;;;;;;;5022667;28;20137;-56
2021/12/25 10:37:43;;;;;;;3.10;2.80;;;;;;;;;;5028791;28;20621;-56
2021/12/25 10:40:21;;;;;;;2.83;2.63;;;;;;;;;;5022126;28;20033;-56
2021/12/25 10:42:46;;;;;;;2.63;2.53;;;;;;;;;;5018383;28;20041;-56
2021/12/25 10:45:14;;;;;;;3.97;2.40;;;;;;;;;;5019428;28;20512;-56
2021/12/25 10:47:39;;;;;;;7.70;2.70;;;;;;;;;;5013331;28;20484;-56
2021/12/25 10:50:13;;;;;;;4.43;2.47;;;;;;;;;;5015676;28;20091;-56
2021/12/25 10:52:44;;;;;;;2.65;2.45;;;;;;;;;;5012143;28;20456;-56
2021/12/25 10:55:15;;;;;;;2.75;2.45;;;;;;;;;;5010481;28;20505;-56
2021/12/25 10:57:43;;;;;;;4.32;3.88;;;;;;;;;;5022167;28;20022;-56
2021/12/25 11:00:09;;;;;;;4.72;3.03;;;;;;;;;;5029440;28;20049;-56
2021/12/25 11:02:36;;;;;;;2.78;2.58;;;;;;;;;;5029024;28;20025;-56
2021/12/25 11:05:23;;;;;;;4.05;2.67;;;;;;;;;;5025521;28;20041;-56
2021/12/25 11:08:01;;;;;;;3.33;3.05;;;;;;;;;;5011797;28;20104;-56
2021/12/25 11:10:26;;;;;;;4.73;2.80;;;;;;;;;;5016557;28;20041;-56
2021/12/25 11:12:51;;;;;;;2.53;2.33;;;;;;;;;;5015183;28;20026;-56
2021/12/25 11:15:21;;;;;;;3.33;3.03;;;;;;;;;;5026061;28;20420;-56
2021/12/25 11:17:51;;;;;;;9.38;4.85;;;;;;;;;;5020162;28;20109;-56
2021/12/25 11:20:25;;;;;;;3.55;2.58;;;;;;;;;;5011327;28;20112;-56
2021/12/25 11:22:53;;;;;;;2.40;2.30;;;;;;;;;;5020151;28;20022;-57
2021/12/25 11:25:19;;;;;;;5.70;2.67;;;;;;;;;;5022163;28;20053;-57
2021/12/25 11:27:45;;;;;;;2.80;2.60;;;;;;;;;;5023818;28;20032;-57
2021/12/25 11:30:10;;;;;;;4.93;2.80;;;;;;;;;;5011959;28;20042;-57
2021/12/25 11:32:36;;;;;;;2.35;2.22;;;;;;;;;;5011149;28;20392;-57
2021/12/25 11:35:01;;;;;;;3.53;2.90;;;;;;;;;;5022528;28;20042;-57
2021/12/25 11:37:26;;;;;;;2.45;2.33;;;;;;;;;;5015937;28;20063;-57
2021/12/25 11:39:53;;;;;;;3.13;2.70;;;;;;;;;;5020548;28;20063;-57
2021/12/25 11:42:19;;;;;;;5.22;3.55;;;;;;;;;;5011567;28;20010;-57
2021/12/25 11:44:46;;;;;;;3.35;3.08;;;;;;;;;;5012067;28;20125;-57
2021/12/25 11:47:30;;;;;;;2.65;2.40;;;;;;;;;;5011165;28;20504;-57
2021/12/25 11:49:56;;;;;;;2.80;2.60;;;;;;;;;;5013546;28;20033;-57
2021/12/25 11:52:28;;;;;;;4.68;3.03;;;;;;;;;;5030882;28;20014;-57
2021/12/25 11:57:46;;;;;;;2.70;2.60;;;;;;;;;;5024447;28;20477;-57
2021/12/25 12:00:12;;;;;;;3.28;2.97;;;;;;;;;;5021671;28;20069;-57
2021/12/25 12:02:41;;;;;;;2.80;2.42;;;;;;;;;;5017023;28;20060;-57
2021/12/25 12:05:17;;;;;;;6.60;3.53;;;;;;;;;;5009719;28;20042;-57
2021/12/25 12:08:04;;;;;;;2.83;2.55;;;;;;;;;;5015916;28;20022;-57
2021/12/25 12:10:48;;;;;;;3.05;2.75;;;;;;;;;;5026220;28;20045;-57
2021/12/25 12:13:17;;;;;;;3.40;3.03;;;;;;;;;;5037780;28;20032;-57
2021/12/25 12:15:46;;;;;;;4.22;3.65;;;;;;;;;;5040237;28;20423;-57
2021/12/25 12:18:24;;;;;;;3.22;3.03;;;;;;;;;;5047065;28;20021;-57
2021/12/25 12:20:49;;;;;;;9.82;6.90;;;;;;;;;;5041669;28;20055;-57
2021/12/25 12:26:13;;;;;;;3.50;3.28;;;;;;;;;;5041363;28;20041;-57
2021/12/25 12:29:04;;;;;;;4.70;4.18;;;;;;;;;;5050991;28;20067;-57
2021/12/25 12:31:32;;;;;;;4.50;3.22;;;;;;;;;;5029400;28;20041;-57
2021/12/25 12:33:57;;;;;;;3.58;3.22;;;;;;;;;;5016195;28;20117;-57
2021/12/25 12:36:23;;;;;;;6.97;4.63;;;;;;;;;;5020528;28;20514;-57
2021/12/25 12:38:53;;;;;;;5.38;4.00;;;;;;;;;;5034518;28;20029;-57
2021/12/25 12:41:25;;;;;;;6.57;4.82;;;;;;;;;;5032440;28;20144;-57
2021/12/25 12:43:52;;;;;;;3.95;3.65;;;;;;;;;;5030770;28;20051;-57
2021/12/25 12:46:17;;;;;;;7.32;5.55;;;;;;;;;;5018381;28;20037;-57
2021/12/25 12:49:00;;;;;;;7.20;4.30;;;;;;;;;;5014442;28;20026;-57
2021/12/25 12:51:26;;;;;;;3.80;3.45;;;;;;;;;;5017191;28;20045;-57
2021/12/25 12:53:51;;;;;;;3.95;3.55;;;;;;;;;;5015698;28;20033;-57
2021/12/25 12:56:21;;;;;;;2.97;2.78;;;;;;;;;;5013482;28;20510;-57
2021/12/25 12:58:51;;;;;;;3.58;2.42;;;;;;;;;;5017576;28;20033;-57
2021/12/25 13:01:16;;;;;;;5.65;3.55;;;;;;;;;;5013711;28;20081;-57
2021/12/25 13:03:41;;;;;;;3.80;2.95;;;;;;;;;;5021136;28;20060;-57
2021/12/25 13:06:12;;;;;;;5.10;3.28;;;;;;;;;;5026540;28;20052;-57
2021/12/25 13:08:39;;;;;;;4.68;3.40;;;;;;;;;;5029772;28;20148;-57
2021/12/25 13:11:11;;;;;;;5.40;4.32;;;;;;;;;;5024482;28;20042;-57
2021/12/25 13:13:40;;;;;;;3.22;3.03;;;;;;;;;;5025418;28;20036;-57
2021/12/25 13:16:08;;;;;;;3.50;3.20;;;;;;;;;;5017384;28;20050;-57
2021/12/25 13:18:35;;;;;;;14.52;9.50;;;;;;;;;;5015297;28;20046;-57
2021/12/25 13:21:00;;;;;;;3.17;2.88;;;;;;;;;;5028945;28;20029;-57
2021/12/25 13:23:27;;;;;;;2.70;2.50;;;;;;;;;;5013380;28;20045;-57
2021/12/25 13:26:01;;;;;;;3.65;3.28;;;;;;;;;;5011736;28;20088;-57
2021/12/25 13:28:27;;;;;;;3.90;2.80;;;;;;;;;;5020242;28;20025;-57
2021/12/25 13:31:03;;;;;;;4.57;4.18;;;;;;;;;;5019894;28;20045;-57
2021/12/25 13:33:30;;;;;;;4.38;2.33;;;;;;;;;;5032578;28;20021;-57
2021/12/25 13:36:16;;;;;;;5.15;4.65;;;;;;;;;;5030692;28;20179;-57
2021/12/25 13:38:46;;;;;;;3.47;2.80;;;;;;;;;;5033123;28;20021;-57
2021/12/25 13:41:11;;;;;;;3.22;3.03;;;;;;;;;;5027320;28;20484;-57
2021/12/25 13:43:37;;;;;;;3.83;3.53;;;;;;;;;;5024432;28;20029;-57
2021/12/25 13:46:02;;;;;;;3.03;2.75;;;;;;;;;;5015529;28;20040;-57
2021/12/25 13:48:35;;;;;;;4.50;4.07;;;;;;;;;;5013436;28;20026;-57
2021/12/25 13:51:01;;;;;;;2.90;2.70;;;;;;;;;;5012790;28;20441;-57
2021/12/25 13:53:29;;;;;;;3.78;3.17;;;;;;;;;;5013501;28;20030;-57
2021/12/25 13:55:54;;;;;;;3.20;3.00;;;;;;;;;;5018959;28;20458;-57
2021/12/25 13:58:19;;;;;;;3.50;3.20;;;;;;;;;;5015055;28;20040;-56
2021/12/25 14:00:48;;;;;;;3.75;3.38;;;;;;;;;;5017391;28;20538;-57
2021/12/25 14:03:14;;;;;;;2.55;2.45;;;;;;;;;;5024450;28;20084;-57
2021/12/25 14:05:40;;;;;;;3.22;2.95;;;;;;;;;;5030502;28;20033;-57
2021/12/25 14:08:06;;;;;;;3.42;2.83;;;;;;;;;;5028553;28;20033;-57
2021/12/25 14:10:33;;;;;;;4.15;3.75;;;;;;;;;;5017713;28;20052;-57
2021/12/25 14:13:00;;;;;;;3.20;3.00;;;;;;;;;;5026589;28;20110;-57
2021/12/25 14:15:27;;;;;;;3.58;3.28;;;;;;;;;;5030292;28;20044;-57
2021/12/25 14:17:52;;;;;;;4.20;3.40;;;;;;;;;;5027555;28;20380;-57
2021/12/25 14:20:17;;;;;;;3.08;2.88;;;;;;;;;;5027293;28;20033;-57
2021/12/25 14:22:43;;;;;;;3.65;3.35;;;;;;;;;;5024293;28;20025;-57
2021/12/25 14:25:19;;;;;;;3.70;3.33;;;;;;;;;;5012839;28;20379;-57
2021/12/25 14:27:44;;;;;;;4.15;3.17;;;;;;;;;;5012717;28;20045;-57
2021/12/25 14:30:11;;;;;;;3.42;3.20;;;;;;;;;;5012397;28;20123;-57
2021/12/25 14:32:37;;;;;;;3.22;3.03;;;;;;;;;;5011674;28;20029;-57
2021/12/25 14:35:12;;;;;;;5.53;3.47;;;;;;;;;;5018328;28;20050;-57
2021/12/25 14:37:37;;;;;;;16.63;11.77;;;;;;;;;;5022052;28;20473;-57
2021/12/25 14:40:11;;;;;;;3.95;3.60;;;;;;;;;;5023173;28;20032;-57
2021/12/25 14:42:37;;;;;;;8.95;6.97;;;;;;;;;;5026275;28;20083;-57
2021/12/25 14:45:03;;;;;;;4.40;4.10;;;;;;;;;;5017302;28;20034;-57
2021/12/25 14:47:28;;;;;;;5.65;4.13;;;;;;;;;;5018536;28;20029;-57
2021/12/25 14:49:53;;;;;;;4.43;4.03;;;;;;;;;;5020284;28;20034;-56
2021/12/25 14:52:19;;;;;;;3.45;3.15;;;;;;;;;;5022374;28;20452;-56
2021/12/25 14:54:44;;;;;;;8.85;4.20;;;;;;;;;;5030198;28;20029;-57
2021/12/25 14:57:20;;;;;;;3.88;3.38;;;;;;;;;;5024580;28;20025;-57
2021/12/25 14:59:45;;;;;;;6.85;3.72;;;;;;;;;;5019423;28;20036;-57
2021/12/25 15:02:16;;;;;;;7.65;3.20;;;;;;;;;;5016738;28;20049;-56
2021/12/25 15:04:47;;;;;;;3.90;3.60;;;;;;;;;;5027360;28;20033;-57
2021/12/25 15:07:13;;;;;;;4.15;3.55;;;;;;;;;;5013740;28;20026;-57
2021/12/25 15:09:40;;;;;;;7.47;4.75;;;;;;;;;;5010133;28;20026;-57
2021/12/25 15:12:09;;;;;;;6.43;5.30;;;;;;;;;;5024485;28;20025;-57
2021/12/25 15:14:45;;;;;;;4.70;3.83;;;;;;;;;;5023095;28;20448;-57
2021/12/25 15:17:12;;;;;;;3.80;3.50;;;;;;;;;;5028461;28;20028;-57
2021/12/25 15:19:39;;;;;;;3.97;3.67;;;;;;;;;;5025172;28;20037;-57
2021/12/25 15:22:06;;;;;;;5.88;4.35;;;;;;;;;;5011501;28;20091;-57
2021/12/25 15:24:32;;;;;;;4.25;3.90;;;;;;;;;;5016523;28;20542;-57
2021/12/25 15:26:59;;;;;;;6.20;4.72;;;;;;;;;;5029516;28;20105;-57
2021/12/25 15:29:30;;;;;;;5.35;4.43;;;;;;;;;;5028191;28;20120;-57
2021/12/25 15:32:03;;;;;;;5.53;4.22;;;;;;;;;;5027347;28;20029;-57
2021/12/25 15:34:28;;;;;;;4.45;3.67;;;;;;;;;;5016686;28;20041;-56
2021/12/25 15:36:53;;;;;;;8.55;6.88;;;;;;;;;;5011572;28;20025;-57
2021/12/25 15:39:20;;;;;;;4.10;3.80;;;;;;;;;;5012388;28;20045;-57
2021/12/25 15:41:46;;;;;;;7.22;4.60;;;;;;;;;;5017369;28;20510;-57
2021/12/25 15:44:12;;;;;;;5.10;4.15;;;;;;;;;;5010000;28;20025;-56
2021/12/25 15:46:37;;;;;;;6.05;5.43;;;;;;;;;;5010608;28;20030;-57